sensor_id;sensor_type;location;lat;lon;timestamp;pressure;altitude;pressure_sealevel;temperature;humidity
72677;BME280;60755;51.374;10.662;2022-11-20T06:02:15;96637.84;;;-8.80;98.31
72677;BME280;60755;51.374;10.662;2022-11-20T06:04:42;96640.91;;;-8.86;98.42
72677;BME280;60755;51.374;10.662;2022-11-20T06:07:08;96635.44;;;-8.82;97.77
72677;BME280;60755;51.374;10.662;2022-11-20T06:09:35;96637.41;;;-8.85;98.29
72677;BME280;60755;51.374;10.662;2022-11-20T06:12:02;96636.69;;;-8.57;97.98
72677;BME280;60755;51.374;10.662;2022-11-20T06:14:28;96633.09;;;-8.54;98.93
72677;BME280;60755;51.374;10.662;2022-11-20T06:16:55;96631.63;;;-8.57;98.42
72677;BME280;60755;51.374;10.662;2022-11-20T06:19:22;96629.31;;;-8.50;97.74
72677;BME280;60755;51.374;10.662;2022-11-20T06:21:49;96640.72;;;-8.44;96.77
72677;BME280;60755;51.374;10.662;2022-11-20T06:24:16;96644.50;;;-8.49;95.06
72677;BME280;60755;51.374;10.662;2022-11-20T06:26:42;96646.75;;;-8.46;96.09
72677;BME280;60755;51.374;10.662;2022-11-20T06:29:09;96642.47;;;-8.55;96.06
72677;BME280;60755;51.374;10.662;2022-11-20T06:31:36;96631.59;;;-8.28;96.60
72677;BME280;60755;51.374;10.662;2022-11-20T06:34:03;96637.41;;;-8.16;97.63
72677;BME280;60755;51.374;10.662;2022-11-20T06:36:30;96634.31;;;-8.10;96.80
72677;BME280;60755;51.374;10.662;2022-11-20T06:38:57;96639.13;;;-8.07;97.90
72677;BME280;60755;51.374;10.662;2022-11-20T06:41:23;96634.31;;;-8.00;98.61
72677;BME280;60755;51.374;10.662;2022-11-20T06:43:50;96638.59;;;-8.01;98.80
72677;BME280;60755;51.374;10.662;2022-11-20T06:46:18;96639.13;;;-7.88;98.82
72677;BME280;60755;51.374;10.662;2022-11-20T06:48:45;96638.47;;;-7.90;98.83
72677;BME280;60755;51.374;10.662;2022-11-20T06:51:12;96640.47;;;-7.74;98.83
72677;BME280;60755;51.374;10.662;2022-11-20T06:53:40;96629.22;;;-7.91;99.33
72677;BME280;60755;51.374;10.662;2022-11-20T06:56:07;96629.19;;;-7.81;99.87
72677;BME280;60755;51.374;10.662;2022-11-20T06:58:34;96631.50;;;-7.78;100.00
72677;BME280;60755;51.374;10.662;2022-11-20T07:01:03;96633.50;;;-7.81;99.26
72677;BME280;60755;51.374;10.662;2022-11-20T07:03:29;96633.50;;;-7.81;99.61
72677;BME280;60755;51.374;10.662;2022-11-20T07:05:56;96629.06;;;-7.70;100.00
72677;BME280;60755;51.374;10.662;2022-11-20T07:08:23;96627.31;;;-7.69;100.00
72677;BME280;60755;51.374;10.662;2022-11-20T07:10:51;96627.72;;;-7.74;100.00
72677;BME280;60755;51.374;10.662;2022-11-20T07:13:18;96627.16;;;-7.58;100.00
72677;BME280;60755;51.374;10.662;2022-11-20T07:15:44;96626.88;;;-7.45;100.00
72677;BME280;60755;51.374;10.662;2022-11-20T07:18:11;96626.53;;;-7.23;100.00
72677;BME280;60755;51.374;10.662;2022-11-20T07:20:37;96632.94;;;-7.09;100.00
72677;BME280;60755;51.374;10.662;2022-11-20T07:23:04;96623.16;;;-6.86;100.00
72677;BME280;60755;51.374;10.662;2022-11-20T07:25:30;96621.94;;;-6.82;99.65
72677;BME280;60755;51.374;10.662;2022-11-20T07:27:59;96624.69;;;-6.93;98.17
72677;BME280;60755;51.374;10.662;2022-11-20T07:30:25;96626.34;;;-6.29;97.43
72677;BME280;60755;51.374;10.662;2022-11-20T07:32:53;96623.84;;;-6.39;95.91
72677;BME280;60755;51.374;10.662;2022-11-20T07:35:19;96612.38;;;-6.35;96.45
72677;BME280;60755;51.374;10.662;2022-11-20T07:37:47;96615.09;;;-6.36;96.71
72677;BME280;60755;51.374;10.662;2022-11-20T07:40:14;96602.22;;;-6.27;95.81
72677;BME280;60755;51.374;10.662;2022-11-20T07:42:47;96607.34;;;-5.91;94.83
72677;BME280;60755;51.374;10.662;2022-11-20T07:45:15;96602.66;;;-5.70;94.08
72677;BME280;60755;51.374;10.662;2022-11-20T07:47:42;96609.13;;;-5.92;95.56
72677;BME280;60755;51.374;10.662;2022-11-20T07:50:09;96607.22;;;-6.07;93.89
72677;BME280;60755;51.374;10.662;2022-11-20T07:52:35;96607.16;;;-6.15;93.43
72677;BME280;60755;51.374;10.662;2022-11-20T07:55:02;96607.44;;;-6.01;94.74
72677;BME280;60755;51.374;10.662;2022-11-20T07:57:28;96602.59;;;-6.04;95.47
72677;BME280;60755;51.374;10.662;2022-11-20T07:59:55;96606.81;;;-5.95;96.36
72677;BME280;60755;51.374;10.662;2022-11-20T08:02:23;96605.16;;;-5.78;97.91
72677;BME280;60755;51.374;10.662;2022-11-20T08:04:49;96608.41;;;-5.50;97.08
72677;BME280;60755;51.374;10.662;2022-11-20T08:07:16;96614.69;;;-5.44;95.92
72677;BME280;60755;51.374;10.662;2022-11-20T08:09:42;96612.09;;;-5.52;96.80
72677;BME280;60755;51.374;10.662;2022-11-20T08:12:16;96611.47;;;-5.46;97.70
72677;BME280;60755;51.374;10.662;2022-11-20T08:15:01;96621.13;;;-5.40;97.36
72677;BME280;60755;51.374;10.662;2022-11-20T08:17:29;96617.84;;;-5.24;98.13
72677;BME280;60755;51.374;10.662;2022-11-20T08:19:55;96618.13;;;-5.01;97.46
72677;BME280;60755;51.374;10.662;2022-11-20T08:22:22;96624.91;;;-4.92;96.33
72677;BME280;60755;51.374;10.662;2022-11-20T08:24:49;96634.91;;;-4.81;96.51
72677;BME280;60755;51.374;10.662;2022-11-20T08:27:16;96629.47;;;-4.70;96.80
72677;BME280;60755;51.374;10.662;2022-11-20T08:29:42;96638.00;;;-4.61;96.02
72677;BME280;60755;51.374;10.662;2022-11-20T08:32:09;96630.03;;;-4.50;96.70
72677;BME280;60755;51.374;10.662;2022-11-20T08:34:37;96640.81;;;-4.38;98.62
72677;BME280;60755;51.374;10.662;2022-11-20T08:37:03;96645.00;;;-4.21;97.09
72677;BME280;60755;51.374;10.662;2022-11-20T08:39:30;96641.19;;;-4.09;98.03
72677;BME280;60755;51.374;10.662;2022-11-20T08:41:56;96642.81;;;-3.91;96.57
72677;BME280;60755;51.374;10.662;2022-11-20T08:44:22;96639.31;;;-3.74;95.60
72677;BME280;60755;51.374;10.662;2022-11-20T08:46:49;96638.66;;;-3.60;95.18
72677;BME280;60755;51.374;10.662;2022-11-20T08:49:15;96633.81;;;-3.47;95.52
72677;BME280;60755;51.374;10.662;2022-11-20T08:51:44;96642.84;;;-3.43;95.73
72677;BME280;60755;51.374;10.662;2022-11-20T08:54:13;96641.03;;;-3.26;94.47
72677;BME280;60755;51.374;10.662;2022-11-20T08:56:39;96640.25;;;-3.26;94.00
72677;BME280;60755;51.374;10.662;2022-11-20T08:59:06;96637.66;;;-3.18;94.59
72677;BME280;60755;51.374;10.662;2022-11-20T09:01:32;96635.13;;;-3.51;92.49
72677;BME280;60755;51.374;10.662;2022-11-20T09:03:59;96644.72;;;-3.12;94.72
72677;BME280;60755;51.374;10.662;2022-11-20T09:06:25;96638.31;;;-3.32;92.57
72677;BME280;60755;51.374;10.662;2022-11-20T09:08:53;96633.59;;;-2.88;93.27
72677;BME280;60755;51.374;10.662;2022-11-20T09:11:20;96632.38;;;-2.69;92.40
72677;BME280;60755;51.374;10.662;2022-11-20T09:13:46;96642.50;;;-2.68;93.40
72677;BME280;60755;51.374;10.662;2022-11-20T09:16:13;96631.69;;;-2.55;92.65
72677;BME280;60755;51.374;10.662;2022-11-20T09:18:39;96637.88;;;-2.72;92.72
72677;BME280;60755;51.374;10.662;2022-11-20T09:21:08;96631.50;;;-2.54;94.43
72677;BME280;60755;51.374;10.662;2022-11-20T09:23:36;96631.56;;;-2.62;94.66
72677;BME280;60755;51.374;10.662;2022-11-20T09:26:04;96635.22;;;-2.56;94.86
72677;BME280;60755;51.374;10.662;2022-11-20T09:28:32;96623.69;;;-2.68;92.57
72677;BME280;60755;51.374;10.662;2022-11-20T09:30:59;96618.16;;;-2.88;94.86
72677;BME280;60755;51.374;10.662;2022-11-20T09:33:25;96630.69;;;-2.93;94.39
72677;BME280;60755;51.374;10.662;2022-11-20T09:35:52;96618.22;;;-3.04;95.12
72677;BME280;60755;51.374;10.662;2022-11-20T09:38:18;96619.94;;;-2.97;96.55
72677;BME280;60755;51.374;10.662;2022-11-20T09:40:48;96618.81;;;-2.94;95.96
72677;BME280;60755;51.374;10.662;2022-11-20T09:43:21;96623.63;;;-2.91;95.60
72677;BME280;60755;51.374;10.662;2022-11-20T09:45:59;96607.44;;;-3.08;95.36
72677;BME280;60755;51.374;10.662;2022-11-20T09:48:36;96613.59;;;-2.70;94.29
72677;BME280;60755;51.374;10.662;2022-11-20T09:51:14;96609.38;;;-2.63;94.22
72677;BME280;60755;51.374;10.662;2022-11-20T09:53:48;96615.63;;;-2.65;92.59
72677;BME280;60755;51.374;10.662;2022-11-20T09:56:17;96610.41;;;-2.49;91.26
72677;BME280;60755;51.374;10.662;2022-11-20T09:58:47;96598.31;;;-2.32;90.62
72677;BME280;60755;51.374;10.662;2022-11-20T10:01:15;96601.59;;;-2.46;91.35
72677;BME280;60755;51.374;10.662;2022-11-20T10:03:50;96596.13;;;-2.51;91.41
72677;BME280;60755;51.374;10.662;2022-11-20T10:06:23;96596.63;;;-2.48;93.13
72677;BME280;60755;51.374;10.662;2022-11-20T10:08:55;96595.06;;;-2.34;91.46
72677;BME280;60755;51.374;10.662;2022-11-20T10:11:32;96591.44;;;-2.40;92.64
72677;BME280;60755;51.374;10.662;2022-11-20T10:14:16;96584.66;;;-2.41;92.64
72677;BME280;60755;51.374;10.662;2022-11-20T10:16:52;96582.28;;;-2.19;90.46
72677;BME280;60755;51.374;10.662;2022-11-20T10:19:43;96583.94;;;-2.27;91.15
72677;BME280;60755;51.374;10.662;2022-11-20T10:22:21;96585.44;;;-2.09;90.42
72677;BME280;60755;51.374;10.662;2022-11-20T10:24:56;96582.06;;;-2.10;90.95
72677;BME280;60755;51.374;10.662;2022-11-20T10:27:39;96582.63;;;-2.22;89.31
72677;BME280;60755;51.374;10.662;2022-11-20T10:30:12;96585.50;;;-1.94;87.46
72677;BME280;60755;51.374;10.662;2022-11-20T10:32:42;96596.03;;;-1.81;86.57
72677;BME280;60755;51.374;10.662;2022-11-20T10:35:18;96589.97;;;-1.88;88.73
72677;BME280;60755;51.374;10.662;2022-11-20T10:37:49;96583.38;;;-1.91;89.73
72677;BME280;60755;51.374;10.662;2022-11-20T10:40:22;96577.25;;;-1.90;90.69
72677;BME280;60755;51.374;10.662;2022-11-20T10:42:52;96579.31;;;-1.85;89.73
72677;BME280;60755;51.374;10.662;2022-11-20T10:45:36;96583.53;;;-1.70;88.28
72677;BME280;60755;51.374;10.662;2022-11-20T10:48:11;96573.75;;;-1.74;89.06
72677;BME280;60755;51.374;10.662;2022-11-20T10:50:47;96573.56;;;-1.73;88.34
72677;BME280;60755;51.374;10.662;2022-11-20T10:53:27;96569.31;;;-1.28;85.95
72677;BME280;60755;51.374;10.662;2022-11-20T10:56:02;96564.91;;;-1.57;84.10
72677;BME280;60755;51.374;10.662;2022-11-20T10:58:39;96573.34;;;-1.48;83.32
72677;BME280;60755;51.374;10.662;2022-11-20T11:01:15;96572.59;;;-1.34;81.63
72677;BME280;60755;51.374;10.662;2022-11-20T11:03:42;96568.56;;;-1.22;80.99
72677;BME280;60755;51.374;10.662;2022-11-20T11:06:12;96569.72;;;-1.39;82.51
72677;BME280;60755;51.374;10.662;2022-11-20T11:08:43;96563.34;;;-1.28;81.80
72677;BME280;60755;51.374;10.662;2022-11-20T11:11:20;96559.25;;;-1.52;81.58
72677;BME280;60755;51.374;10.662;2022-11-20T11:13:47;96561.53;;;-1.57;80.70
72677;BME280;60755;51.374;10.662;2022-11-20T11:16:22;96554.09;;;-1.23;79.65
72677;BME280;60755;51.374;10.662;2022-11-20T11:18:49;96551.28;;;-1.28;80.44
72677;BME280;60755;51.374;10.662;2022-11-20T11:21:22;96544.59;;;-1.22;79.95
72677;BME280;60755;51.374;10.662;2022-11-20T11:23:58;96539.69;;;-1.32;80.35
72677;BME280;60755;51.374;10.662;2022-11-20T11:26:25;96546.00;;;-0.90;76.01
72677;BME280;60755;51.374;10.662;2022-11-20T11:28:54;96543.59;;;-1.06;78.46
72677;BME280;60755;51.374;10.662;2022-11-20T11:31:26;96544.88;;;-1.02;78.67
72677;BME280;60755;51.374;10.662;2022-11-20T11:34:04;96548.16;;;-1.08;78.67
72677;BME280;60755;51.374;10.662;2022-11-20T11:36:32;96547.97;;;-0.92;75.74
72677;BME280;60755;51.374;10.662;2022-11-20T11:38:58;96533.19;;;-0.98;75.95
72677;BME280;60755;51.374;10.662;2022-11-20T11:41:29;96541.47;;;-0.88;74.92
72677;BME280;60755;51.374;10.662;2022-11-20T11:44:02;96534.44;;;-0.94;75.79
72677;BME280;60755;51.374;10.662;2022-11-20T11:46:58;96526.72;;;-0.94;76.17
72677;BME280;60755;51.374;10.662;2022-11-20T11:49:25;96534.97;;;-0.99;77.37
72677;BME280;60755;51.374;10.662;2022-11-20T11:52:05;96526.63;;;-1.01;80.27
72677;BME280;60755;51.374;10.662;2022-11-20T11:54:38;96515.09;;;-0.69;77.40
72677;BME280;60755;51.374;10.662;2022-11-20T11:57:12;96515.59;;;-0.80;80.32
72677;BME280;60755;51.374;10.662;2022-11-20T11:59:51;96517.72;;;-0.83;79.98
72677;BME280;60755;51.374;10.662;2022-11-20T12:02:31;96521.47;;;-0.86;80.64
72677;BME280;60755;51.374;10.662;2022-11-20T12:05:08;96516.06;;;-0.55;79.11
72677;BME280;60755;51.374;10.662;2022-11-20T12:07:39;96519.34;;;-0.61;77.43
72677;BME280;60755;51.374;10.662;2022-11-20T12:10:15;96524.16;;;-0.73;78.71
72677;BME280;60755;51.374;10.662;2022-11-20T12:12:45;96521.88;;;-0.82;79.16
72677;BME280;60755;51.374;10.662;2022-11-20T12:15:27;96520.38;;;-0.77;79.47
72677;BME280;60755;51.374;10.662;2022-11-20T12:17:56;96516.69;;;-0.68;79.54
72677;BME280;60755;51.374;10.662;2022-11-20T12:20:26;96513.22;;;-0.60;77.29
72677;BME280;60755;51.374;10.662;2022-11-20T12:23:02;96514.00;;;-0.60;76.65
72677;BME280;60755;51.374;10.662;2022-11-20T12:25:35;96512.50;;;-0.54;75.04
72677;BME280;60755;51.374;10.662;2022-11-20T12:31:11;96498.34;;;-0.58;77.51
72677;BME280;60755;51.374;10.662;2022-11-20T12:33:59;96499.25;;;-0.66;78.41
72677;BME280;60755;51.374;10.662;2022-11-20T12:36:38;96494.47;;;-0.69;78.87
72677;BME280;60755;51.374;10.662;2022-11-20T12:39:22;96490.09;;;-0.68;77.97
72677;BME280;60755;51.374;10.662;2022-11-20T12:45:24;96494.84;;;-0.50;76.85
72677;BME280;60755;51.374;10.662;2022-11-20T12:48:23;96493.09;;;-0.65;77.65
72677;BME280;60755;51.374;10.662;2022-11-20T12:51:06;96492.09;;;-0.49;76.82
72677;BME280;60755;51.374;10.662;2022-11-20T12:53:42;96496.19;;;-0.33;75.75
72677;BME280;60755;51.374;10.662;2022-11-20T12:56:20;96497.00;;;-0.33;75.18
72677;BME280;60755;51.374;10.662;2022-11-20T12:58:59;96490.44;;;-0.35;76.53
72677;BME280;60755;51.374;10.662;2022-11-20T13:01:32;96499.97;;;-0.36;76.21
72677;BME280;60755;51.374;10.662;2022-11-20T13:04:15;96477.22;;;-0.25;75.29
72677;BME280;60755;51.374;10.662;2022-11-20T13:06:46;96477.78;;;-0.30;74.96
72677;BME280;60755;51.374;10.662;2022-11-20T13:09:14;96474.47;;;-0.24;75.25
72677;BME280;60755;51.374;10.662;2022-11-20T13:11:47;96483.84;;;-0.16;74.20
72677;BME280;60755;51.374;10.662;2022-11-20T13:14:26;96482.75;;;-0.29;75.65
72677;BME280;60755;51.374;10.662;2022-11-20T13:17:00;96464.63;;;-0.35;75.42
72677;BME280;60755;51.374;10.662;2022-11-20T13:19:30;96469.53;;;-0.40;76.65
72677;BME280;60755;51.374;10.662;2022-11-20T13:21:58;96467.59;;;-0.38;76.28
72677;BME280;60755;51.374;10.662;2022-11-20T13:24:27;96464.25;;;-0.53;78.17
72677;BME280;60755;51.374;10.662;2022-11-20T13:27:19;96466.72;;;-0.45;76.59
72677;BME280;60755;51.374;10.662;2022-11-20T13:29:58;96477.72;;;-0.37;76.44
72677;BME280;60755;51.374;10.662;2022-11-20T13:32:26;96481.22;;;-0.44;77.67
72677;BME280;60755;51.374;10.662;2022-11-20T13:34:58;96478.44;;;-0.43;78.25
72677;BME280;60755;51.374;10.662;2022-11-20T13:37:30;96482.81;;;-0.43;77.78
72677;BME280;60755;51.374;10.662;2022-11-20T13:40:21;96485.13;;;-0.48;79.24
72677;BME280;60755;51.374;10.662;2022-11-20T13:42:55;96485.13;;;-0.48;79.89
72677;BME280;60755;51.374;10.662;2022-11-20T13:45:24;96483.06;;;-0.60;80.27
72677;BME280;60755;51.374;10.662;2022-11-20T13:47:52;96479.97;;;-0.70;81.25
72677;BME280;60755;51.374;10.662;2022-11-20T13:50:23;96486.47;;;-0.74;81.33
72677;BME280;60755;51.374;10.662;2022-11-20T13:53:01;96490.66;;;-0.51;81.13
72677;BME280;60755;51.374;10.662;2022-11-20T13:55:36;96477.22;;;-0.68;82.18
72677;BME280;60755;51.374;10.662;2022-11-20T13:58:22;96470.75;;;-0.58;82.52
72677;BME280;60755;51.374;10.662;2022-11-20T14:00:57;96468.19;;;-0.79;83.59
72677;BME280;60755;51.374;10.662;2022-11-20T14:03:28;96474.47;;;-0.81;84.33
72677;BME280;60755;51.374;10.662;2022-11-20T14:05:59;96471.75;;;-0.80;83.90
72677;BME280;60755;51.374;10.662;2022-11-20T14:08:35;96469.59;;;-0.76;84.06
72677;BME280;60755;51.374;10.662;2022-11-20T14:11:14;96466.97;;;-1.13;84.28
72677;BME280;60755;51.374;10.662;2022-11-20T14:13:55;96466.38;;;-1.15;85.34
72677;BME280;60755;51.374;10.662;2022-11-20T14:16:27;96468.59;;;-1.11;83.93
72677;BME280;60755;51.374;10.662;2022-11-20T14:18:54;96463.28;;;-1.25;82.84
72677;BME280;60755;51.374;10.662;2022-11-20T14:21:23;96467.91;;;-1.35;83.40
72677;BME280;60755;51.374;10.662;2022-11-20T14:23:53;96463.75;;;-1.51;83.78
72677;BME280;60755;51.374;10.662;2022-11-20T14:26:20;96474.56;;;-1.26;83.10
72677;BME280;60755;51.374;10.662;2022-11-20T14:28:49;96469.09;;;-1.52;83.54
72677;BME280;60755;51.374;10.662;2022-11-20T14:31:22;96482.81;;;-1.45;84.52
72677;BME280;60755;51.374;10.662;2022-11-20T14:33:49;96483.97;;;-1.62;85.52
72677;BME280;60755;51.374;10.662;2022-11-20T14:36:17;96480.28;;;-1.60;85.85
72677;BME280;60755;51.374;10.662;2022-11-20T14:38:45;96472.97;;;-1.56;85.06
72677;BME280;60755;51.374;10.662;2022-11-20T14:41:18;96470.41;;;-1.71;86.55
72677;BME280;60755;51.374;10.662;2022-11-20T14:43:48;96465.34;;;-1.64;86.40
72677;BME280;60755;51.374;10.662;2022-11-20T14:46:16;96464.09;;;-1.69;86.30
72677;BME280;60755;51.374;10.662;2022-11-20T14:48:46;96453.94;;;-1.85;87.26
72677;BME280;60755;51.374;10.662;2022-11-20T14:51:25;96448.34;;;-2.03;86.58
72677;BME280;60755;51.374;10.662;2022-11-20T14:53:53;96455.59;;;-2.21;87.14
72677;BME280;60755;51.374;10.662;2022-11-20T14:56:23;96455.72;;;-2.38;88.13
72677;BME280;60755;51.374;10.662;2022-11-20T14:58:57;96459.66;;;-2.50;89.31
72677;BME280;60755;51.374;10.662;2022-11-20T15:01:27;96455.28;;;-2.64;88.93
72677;BME280;60755;51.374;10.662;2022-11-20T15:04:00;96447.94;;;-2.75;90.41
72677;BME280;60755;51.374;10.662;2022-11-20T15:06:26;96450.13;;;-2.64;90.81
72677;BME280;60755;51.374;10.662;2022-11-20T15:08:54;96449.59;;;-2.60;90.69
72677;BME280;60755;51.374;10.662;2022-11-20T15:11:27;96449.53;;;-2.74;90.26
72677;BME280;60755;51.374;10.662;2022-11-20T15:13:54;96443.16;;;-2.78;90.53
72677;BME280;60755;51.374;10.662;2022-11-20T15:16:22;96444.81;;;-2.86;91.20
72677;BME280;60755;51.374;10.662;2022-11-20T15:18:49;96440.69;;;-2.95;92.00
72677;BME280;60755;51.374;10.662;2022-11-20T15:21:18;96443.75;;;-2.99;91.98
72677;BME280;60755;51.374;10.662;2022-11-20T15:23:46;96444.28;;;-3.04;91.77
72677;BME280;60755;51.374;10.662;2022-11-20T15:26:15;96438.66;;;-3.07;91.28
72677;BME280;60755;51.374;10.662;2022-11-20T15:28:45;96425.09;;;-3.24;91.28
72677;BME280;60755;51.374;10.662;2022-11-20T15:31:14;96428.97;;;-3.20;92.10
72677;BME280;60755;51.374;10.662;2022-11-20T15:33:42;96431.28;;;-3.42;91.94
72677;BME280;60755;51.374;10.662;2022-11-20T15:36:09;96429.00;;;-3.28;93.27
72677;BME280;60755;51.374;10.662;2022-11-20T15:38:36;96426.50;;;-3.45;93.35
72677;BME280;60755;51.374;10.662;2022-11-20T15:41:03;96420.34;;;-3.35;92.83
72677;BME280;60755;51.374;10.662;2022-11-20T15:43:30;96411.72;;;-3.43;93.51
72677;BME280;60755;51.374;10.662;2022-11-20T15:46:00;96407.13;;;-3.24;93.24
72677;BME280;60755;51.374;10.662;2022-11-20T15:48:28;96413.84;;;-3.54;94.94
72677;BME280;60755;51.374;10.662;2022-11-20T15:50:58;96408.16;;;-3.73;94.55
72677;BME280;60755;51.374;10.662;2022-11-20T15:53:25;96411.53;;;-3.80;96.49
72677;BME280;60755;51.374;10.662;2022-11-20T15:55:52;96413.28;;;-3.73;97.03
72677;BME280;60755;51.374;10.662;2022-11-20T15:58:19;96420.22;;;-3.89;98.42
72677;BME280;60755;51.374;10.662;2022-11-20T16:00:45;96414.47;;;-3.91;97.66
72677;BME280;60755;51.374;10.662;2022-11-20T16:03:14;96412.72;;;-3.99;98.75
72677;BME280;60755;51.374;10.662;2022-11-20T16:05:41;96405.47;;;-3.87;99.90
72677;BME280;60755;51.374;10.662;2022-11-20T16:08:08;96418.25;;;-3.79;100.00
72677;BME280;60755;51.374;10.662;2022-11-20T16:10:34;96412.31;;;-3.72;100.00
72677;BME280;60755;51.374;10.662;2022-11-20T16:13:01;96407.84;;;-3.78;100.00
72677;BME280;60755;51.374;10.662;2022-11-20T16:15:46;96404.56;;;-3.63;100.00
72677;BME280;60755;51.374;10.662;2022-11-20T16:18:18;96410.06;;;-3.67;100.00
72677;BME280;60755;51.374;10.662;2022-11-20T16:20:47;96406.94;;;-3.54;100.00
72677;BME280;60755;51.374;10.662;2022-11-20T16:23:15;96394.75;;;-3.52;100.00
72677;BME280;60755;51.374;10.662;2022-11-20T16:25:42;96393.41;;;-3.40;100.00
72677;BME280;60755;51.374;10.662;2022-11-20T16:28:09;96394.84;;;-3.14;100.00
72677;BME280;60755;51.374;10.662;2022-11-20T16:30:35;96394.28;;;-3.24;100.00
72677;BME280;60755;51.374;10.662;2022-11-20T16:33:03;96393.88;;;-3.13;100.00
72677;BME280;60755;51.374;10.662;2022-11-20T16:35:31;96393.22;;;-3.07;100.00
72677;BME280;60755;51.374;10.662;2022-11-20T16:37:58;96392.91;;;-3.04;100.00
72677;BME280;60755;51.374;10.662;2022-11-20T16:40:25;96397.31;;;-2.98;99.71
72677;BME280;60755;51.374;10.662;2022-11-20T16:42:51;96393.59;;;-2.87;99.91
72677;BME280;60755;51.374;10.662;2022-11-20T16:45:18;96394.25;;;-2.93;99.00
72677;BME280;60755;51.374;10.662;2022-11-20T16:47:44;96387.03;;;-2.98;99.33
72677;BME280;60755;51.374;10.662;2022-11-20T16:50:11;96379.19;;;-2.96;99.78
72677;BME280;60755;51.374;10.662;2022-11-20T16:52:40;96379.63;;;-2.93;99.68
72677;BME280;60755;51.374;10.662;2022-11-20T16:55:07;96374.72;;;-2.79;98.43
72677;BME280;60755;51.374;10.662;2022-11-20T16:57:34;96377.50;;;-2.89;97.68
72677;BME280;60755;51.374;10.662;2022-11-20T17:00:03;96377.13;;;-3.01;98.56
72677;BME280;60755;51.374;10.662;2022-11-20T17:02:30;96376.72;;;-2.90;99.87
72677;BME280;60755;51.374;10.662;2022-11-20T17:04:56;96379.94;;;-2.88;97.78
72677;BME280;60755;51.374;10.662;2022-11-20T17:07:23;96376.38;;;-2.87;98.11
72677;BME280;60755;51.374;10.662;2022-11-20T17:09:50;96375.03;;;-2.60;99.50
72677;BME280;60755;51.374;10.662;2022-11-20T17:12:17;96370.19;;;-2.55;97.66
72677;BME280;60755;51.374;10.662;2022-11-20T17:14:43;96372.50;;;-2.45;98.15
72677;BME280;60755;51.374;10.662;2022-11-20T17:17:10;96366.56;;;-2.45;97.26
72677;BME280;60755;51.374;10.662;2022-11-20T17:19:36;96371.56;;;-2.29;97.54
72677;BME280;60755;51.374;10.662;2022-11-20T17:22:03;96361.81;;;-2.19;96.56
72677;BME280;60755;51.374;10.662;2022-11-20T17:24:29;96362.78;;;-2.20;96.18
72677;BME280;60755;51.374;10.662;2022-11-20T17:26:57;96356.75;;;-2.12;95.53
72677;BME280;60755;51.374;10.662;2022-11-20T17:29:24;96348.13;;;-2.19;94.90
72677;BME280;60755;51.374;10.662;2022-11-20T17:31:50;96345.38;;;-2.18;95.70
72677;BME280;60755;51.374;10.662;2022-11-20T17:34:17;96340.41;;;-2.19;96.19
72677;BME280;60755;51.374;10.662;2022-11-20T17:36:44;96335.38;;;-2.13;96.24
72677;BME280;60755;51.374;10.662;2022-11-20T17:39:11;96332.78;;;-2.13;96.55
72677;BME280;60755;51.374;10.662;2022-11-20T17:41:38;96330.50;;;-2.08;96.18
72677;BME280;60755;51.374;10.662;2022-11-20T17:44:08;96333.50;;;-2.04;94.83
72677;BME280;60755;51.374;10.662;2022-11-20T17:46:35;96335.81;;;-2.09;94.97
72677;BME280;60755;51.374;10.662;2022-11-20T17:49:02;96334.22;;;-2.10;96.41
72677;BME280;60755;51.374;10.662;2022-11-20T17:51:30;96321.72;;;-1.99;95.26
72677;BME280;60755;51.374;10.662;2022-11-20T17:54:00;96323.91;;;-2.10;95.36
72677;BME280;60755;51.374;10.662;2022-11-20T17:56:29;96319.22;;;-2.21;97.75
72677;BME280;60755;51.374;10.662;2022-11-20T17:59:15;96317.25;;;-2.19;97.51
72677;BME280;60755;51.374;10.662;2022-11-20T18:01:42;96318.69;;;-2.17;97.79
72677;BME280;60755;51.374;10.662;2022-11-20T18:04:09;96311.31;;;-2.20;98.21
72677;BME280;60755;51.374;10.662;2022-11-20T18:06:36;96307.94;;;-2.20;97.39
72677;BME280;60755;51.374;10.662;2022-11-20T18:09:04;96293.91;;;-2.03;97.06
72677;BME280;60755;51.374;10.662;2022-11-20T18:11:33;96291.91;;;-2.08;97.39
72677;BME280;60755;51.374;10.662;2022-11-20T18:14:02;96290.19;;;-2.01;96.92
72677;BME280;60755;51.374;10.662;2022-11-20T18:16:49;96287.88;;;-2.10;97.37
72677;BME280;60755;51.374;10.662;2022-11-20T18:19:17;96284.59;;;-2.04;97.46
72677;BME280;60755;51.374;10.662;2022-11-20T18:21:44;96290.13;;;-2.07;97.51
72677;BME280;60755;51.374;10.662;2022-11-20T18:24:11;96286.19;;;-2.03;97.25
72677;BME280;60755;51.374;10.662;2022-11-20T18:26:37;96287.44;;;-1.99;97.30
72677;BME280;60755;51.374;10.662;2022-11-20T18:29:04;96281.13;;;-1.97;98.62
72677;BME280;60755;51.374;10.662;2022-11-20T18:31:31;96273.13;;;-1.87;97.77
72677;BME280;60755;51.374;10.662;2022-11-20T18:33:58;96267.06;;;-1.79;97.11
72677;BME280;60755;51.374;10.662;2022-11-20T18:36:26;96264.41;;;-1.86;96.73
72677;BME280;60755;51.374;10.662;2022-11-20T18:38:55;96264.56;;;-1.73;97.23
72677;BME280;60755;51.374;10.662;2022-11-20T18:41:24;96253.75;;;-1.68;95.76
72677;BME280;60755;51.374;10.662;2022-11-20T18:44:12;96253.19;;;-1.63;95.62
72677;BME280;60755;51.374;10.662;2022-11-20T18:46:56;96259.06;;;-1.70;96.17
72677;BME280;60755;51.374;10.662;2022-11-20T18:49:24;96255.16;;;-1.65;96.47
72677;BME280;60755;51.374;10.662;2022-11-20T18:51:51;96248.41;;;-1.66;96.48
72677;BME280;60755;51.374;10.662;2022-11-20T18:54:17;96246.63;;;-1.66;96.63
72677;BME280;60755;51.374;10.662;2022-11-20T18:56:44;96253.56;;;-1.66;96.63
72677;BME280;60755;51.374;10.662;2022-11-20T18:59:11;96247.16;;;-1.71;96.56
72677;BME280;60755;51.374;10.662;2022-11-20T19:01:38;96247.34;;;-1.72;97.47
72677;BME280;60755;51.374;10.662;2022-11-20T19:04:05;96246.84;;;-1.61;97.44
72677;BME280;60755;51.374;10.662;2022-11-20T19:06:34;96239.31;;;-1.62;96.54
72677;BME280;60755;51.374;10.662;2022-11-20T19:09:01;96229.66;;;-1.60;96.24
72677;BME280;60755;51.374;10.662;2022-11-20T19:11:29;96225.91;;;-1.58;96.28
72677;BME280;60755;51.374;10.662;2022-11-20T19:13:55;96226.50;;;-1.56;96.64